createdAt,value
2022-08-28T00:00:43.197Z,11.57
2022-08-28T00:03:11.597Z,9.98
2022-08-28T00:05:39.790Z,11.73
2022-08-28T00:08:09.155Z,6.50
2022-08-28T00:10:39.717Z,13.18
2022-08-28T00:13:08.571Z,13.23
2022-08-28T00:15:38.901Z,11.50
2022-08-28T00:18:07.776Z,12.23
2022-08-28T00:20:36.771Z,13.15
2022-08-28T00:23:05.894Z,12.00
2022-08-28T00:25:34.149Z,11.30
2022-08-28T00:28:08.763Z,11.63
2022-08-28T00:30:48.206Z,13.45
2022-08-28T00:33:25.384Z,15.82
2022-08-28T00:35:52.574Z,13.60
2022-08-28T00:38:21.146Z,13.45
2022-08-28T00:40:51.364Z,12.52
2022-08-28T00:43:33.864Z,15.25
2022-08-28T00:46:02.895Z,12.00
2022-08-28T00:48:29.873Z,16.70
2022-08-28T00:51:16.641Z,15.85
2022-08-28T00:53:44.001Z,10.13
2022-08-28T00:56:13.107Z,9.00
2022-08-28T00:58:43.709Z,11.48
2022-08-28T01:01:12.439Z,10.13
2022-08-28T01:03:40.526Z,13.30
2022-08-28T01:06:08.322Z,16.45
2022-08-28T01:08:38.963Z,15.85
2022-08-28T01:11:07.996Z,12.60
2022-08-28T01:13:38.283Z,14.85
2022-08-28T01:16:06.720Z,15.50
2022-08-28T01:18:34.887Z,15.77
2022-08-28T01:21:20.261Z,13.98
2022-08-28T01:23:56.899Z,18.48
2022-08-28T01:26:25.976Z,11.07
2022-08-28T01:28:53.130Z,10.65
2022-08-28T01:31:21.667Z,12.80
2022-08-28T01:33:49.284Z,13.60
2022-08-28T01:36:17.386Z,14.05
2022-08-28T01:38:48.143Z,17.85
2022-08-28T01:41:16.609Z,11.50
2022-08-28T01:43:43.964Z,10.48
2022-08-28T01:46:12.264Z,13.73
2022-08-28T01:48:44.222Z,13.48
2022-08-28T01:51:12.323Z,14.13
2022-08-28T01:53:39.768Z,11.98
2022-08-28T01:56:12.510Z,12.63
2022-08-28T01:58:40.439Z,11.98
2022-08-28T02:01:12.237Z,10.70
2022-08-28T02:03:39.766Z,13.00
2022-08-28T02:06:07.220Z,8.20
2022-08-28T02:08:34.135Z,9.90
2022-08-28T02:11:01.112Z,15.13
2022-08-28T02:13:28.305Z,14.80
2022-08-28T02:15:55.250Z,11.70
2022-08-28T02:18:22.406Z,10.25
2022-08-28T02:20:49.346Z,13.05
2022-08-28T02:23:16.302Z,11.95
2022-08-28T02:25:43.365Z,10.15
2022-08-28T02:28:10.448Z,14.32
2022-08-28T02:30:37.731Z,9.00
2022-08-28T02:33:05.060Z,9.98
2022-08-28T02:35:32.853Z,8.93
2022-08-28T02:38:00.576Z,13.00
2022-08-28T02:40:28.292Z,10.02
2022-08-28T02:42:55.325Z,12.93
2022-08-28T02:45:22.341Z,8.60
2022-08-28T02:47:53.125Z,15.07
2022-08-28T02:50:21.447Z,15.20
2022-08-28T02:52:48.452Z,11.48
2022-08-28T02:55:17.466Z,12.20
2022-08-28T02:57:45.760Z,13.48
2022-08-28T03:00:16.901Z,12.13
2022-08-28T03:02:45.645Z,11.60
2022-08-28T03:05:15.269Z,16.92
2022-08-28T03:07:42.745Z,12.45
2022-08-28T03:10:10.587Z,9.40
2022-08-28T03:12:38.446Z,8.60
2022-08-28T03:15:07.688Z,12.63
2022-08-28T03:17:36.906Z,14.63
2022-08-28T03:20:08.589Z,11.98
2022-08-28T03:22:54.783Z,11.30
2022-08-28T03:25:22.475Z,9.63
2022-08-28T03:27:50.191Z,11.82
2022-08-28T03:30:18.403Z,11.50
2022-08-28T03:32:45.323Z,11.55
2022-08-28T03:35:12.417Z,15.25
2022-08-28T03:37:39.389Z,15.05
2022-08-28T03:40:08.705Z,9.05
2022-08-28T03:42:35.892Z,13.63
2022-08-28T03:45:05.515Z,12.07
2022-08-28T03:47:32.560Z,10.80
2022-08-28T03:50:00.462Z,14.20
2022-08-28T03:52:27.415Z,14.90
2022-08-28T03:54:54.360Z,11.73
2022-08-28T03:57:22.489Z,12.98
2022-08-28T03:59:51.797Z,14.20
2022-08-28T04:02:20.533Z,12.98
2022-08-28T04:04:51.047Z,11.85
2022-08-28T04:07:19.576Z,8.68
2022-08-28T04:09:47.203Z,12.30
2022-08-28T04:12:15.180Z,7.47
2022-08-28T04:14:42.223Z,18.63
2022-08-28T04:17:09.948Z,15.65
2022-08-28T04:19:37.800Z,16.80
2022-08-28T04:22:04.852Z,16.45
2022-08-28T04:24:31.975Z,19.25
2022-08-28T04:26:58.880Z,14.90
2022-08-28T04:29:25.893Z,11.80
2022-08-28T04:31:53.054Z,10.73
2022-08-28T04:34:20.133Z,13.07
2022-08-28T04:36:50.065Z,13.32
2022-08-28T04:39:17.119Z,14.20
2022-08-28T04:41:44.056Z,13.93
2022-08-28T04:44:10.976Z,14.60
2022-08-28T04:46:38.553Z,15.30
2022-08-28T04:49:05.911Z,11.93
2022-08-28T04:51:33.373Z,13.70
2022-08-28T04:54:02.415Z,17.17
2022-08-28T04:56:29.628Z,14.60
2022-08-28T04:58:56.664Z,16.45
2022-08-28T05:01:24.795Z,11.18
2022-08-28T05:03:58.820Z,10.63
2022-08-28T05:06:28.629Z,11.13
2022-08-28T05:09:00.321Z,12.32
2022-08-28T05:11:33.167Z,8.68
2022-08-28T05:14:01.840Z,10.15
2022-08-28T05:16:28.853Z,10.85
2022-08-28T05:19:00.419Z,11.35
2022-08-28T05:21:28.294Z,9.95
2022-08-28T05:23:57.508Z,13.27
2022-08-28T05:26:27.200Z,10.73
2022-08-28T05:28:56.731Z,7.00
2022-08-28T05:31:25.167Z,10.10
2022-08-28T05:33:53.570Z,10.18
2022-08-28T05:36:23.444Z,12.13
2022-08-28T05:38:56.733Z,9.27
2022-08-28T05:41:26.500Z,8.48
2022-08-28T05:43:54.723Z,10.23
2022-08-28T05:46:22.524Z,10.82
2022-08-28T05:48:50.112Z,27.98
2022-08-28T05:51:20.264Z,13.98
2022-08-28T05:53:50.094Z,11.43
2022-08-28T05:56:23.773Z,6.60
2022-08-28T05:58:51.369Z,9.52
2022-08-28T06:01:46.114Z,8.23
2022-08-28T06:04:27.269Z,15.55
2022-08-28T06:06:54.665Z,12.85
2022-08-28T06:09:29.035Z,12.35
2022-08-28T06:11:59.560Z,11.02
2022-08-28T06:14:27.790Z,8.30
2022-08-28T06:16:56.123Z,10.82
2022-08-28T06:19:25.264Z,9.38
2022-08-28T06:21:55.353Z,6.68
2022-08-28T06:24:22.315Z,8.85
2022-08-28T06:26:49.412Z,9.05
2022-08-28T06:29:18.369Z,8.98
2022-08-28T06:31:53.102Z,10.50
2022-08-28T06:34:20.601Z,9.65
2022-08-28T06:36:53.105Z,11.45
2022-08-28T06:39:21.438Z,8.48
2022-08-28T06:41:48.487Z,9.32
2022-08-28T06:44:19.825Z,7.68
2022-08-28T06:46:52.271Z,10.75
2022-08-28T06:49:19.281Z,11.13
2022-08-28T06:51:46.437Z,17.88
2022-08-28T06:54:19.647Z,8.20
2022-08-28T06:56:49.769Z,12.70
2022-08-28T06:59:16.706Z,9.00
2022-08-28T07:01:43.874Z,8.05
2022-08-28T07:04:12.219Z,9.35
2022-08-28T07:06:43.961Z,10.57
2022-08-28T07:09:11.376Z,9.55
2022-08-28T07:11:39.855Z,13.10
2022-08-28T07:14:07.259Z,7.97
2022-08-28T07:16:38.373Z,8.55
2022-08-28T07:19:07.481Z,10.38
2022-08-28T07:21:38.213Z,8.30
2022-08-28T07:24:07.125Z,8.88
2022-08-28T07:26:35.657Z,8.77
2022-08-28T07:29:10.065Z,9.13
2022-08-28T07:31:40.915Z,12.02
2022-08-28T07:34:09.711Z,13.18
2022-08-28T07:36:36.763Z,11.05
2022-08-28T07:39:05.350Z,12.68
2022-08-28T07:41:35.353Z,6.88
2022-08-28T07:44:21.398Z,8.18
2022-08-28T07:46:48.373Z,12.68
2022-08-28T07:49:17.262Z,10.57
2022-08-28T07:51:46.712Z,7.15
2022-08-28T07:54:15.520Z,12.20
2022-08-28T07:56:45.718Z,14.75
2022-08-28T07:59:16.750Z,6.78
2022-08-28T08:01:48.902Z,7.25
2022-08-28T08:04:17.429Z,7.65
2022-08-28T08:06:45.111Z,7.38
2022-08-28T08:09:14.510Z,7.18
2022-08-28T08:11:42.465Z,10.77
2022-08-28T08:14:10.027Z,15.38
2022-08-28T08:16:40.762Z,9.82
2022-08-28T08:19:13.983Z,10.93
2022-08-28T08:21:46.152Z,9.82
2022-08-28T08:24:16.718Z,12.77
2022-08-28T08:26:55.202Z,9.63
2022-08-28T08:29:32.129Z,7.30
2022-08-28T08:32:06.416Z,8.23
2022-08-28T08:34:36.706Z,11.02
2022-08-28T08:37:05.522Z,10.90
2022-08-28T08:39:33.940Z,9.90
2022-08-28T08:42:03.824Z,7.15
2022-08-28T08:44:34.108Z,11.68
2022-08-28T08:47:23.104Z,10.93
2022-08-28T08:49:54.469Z,6.75
2022-08-28T08:52:36.511Z,6.18
2022-08-28T08:55:24.978Z,9.43
2022-08-28T08:57:57.187Z,11.45
2022-08-28T09:00:24.496Z,7.55
2022-08-28T09:03:15.235Z,9.05
2022-08-28T09:05:48.809Z,6.20
2022-08-28T09:08:47.477Z,6.93
2022-08-28T09:11:33.324Z,7.95
2022-08-28T09:14:35.206Z,9.43
2022-08-28T09:17:02.835Z,7.32
2022-08-28T09:19:30.380Z,5.22
2022-08-28T09:21:57.690Z,8.77
2022-08-28T09:24:28.752Z,8.38
2022-08-28T09:27:04.503Z,8.57
2022-08-28T09:29:36.010Z,7.60
2022-08-28T09:32:43.586Z,9.52
2022-08-28T09:35:30.796Z,8.20
2022-08-28T09:38:18.135Z,7.15
2022-08-28T09:41:03.689Z,6.05
2022-08-28T09:43:33.522Z,8.80
2022-08-28T09:46:01.985Z,3.30
2022-08-28T09:48:32.214Z,6.07
2022-08-28T09:51:03.828Z,10.23
2022-08-28T09:53:35.535Z,4.93
2022-08-28T09:56:27.097Z,5.28
2022-08-28T09:58:59.810Z,6.95
2022-08-28T10:01:45.081Z,6.07
2022-08-28T10:04:19.526Z,5.80
2022-08-28T10:06:55.193Z,7.78
2022-08-28T10:09:38.129Z,4.43
2022-08-28T10:12:42.956Z,8.77
2022-08-28T10:15:09.883Z,5.50
2022-08-28T10:18:01.706Z,6.75
2022-08-28T10:20:37.533Z,5.55
2022-08-28T10:23:13.434Z,5.03
2022-08-28T10:25:50.355Z,5.88
2022-08-28T10:28:26.137Z,5.07
2022-08-28T10:31:04.501Z,9.25
2022-08-28T10:33:40.139Z,6.40
2022-08-28T10:36:34.228Z,6.22
2022-08-28T10:39:28.463Z,7.65
2022-08-28T10:41:59.991Z,6.82
2022-08-28T10:44:36.850Z,7.72
2022-08-28T10:47:05.672Z,5.70
2022-08-28T10:49:38.103Z,3.67
2022-08-28T10:52:12.361Z,5.25
2022-08-28T10:54:54.775Z,8.63
2022-08-28T10:57:36.102Z,6.20
2022-08-28T11:00:19.846Z,5.22
2022-08-28T11:02:57.822Z,4.15
2022-08-28T11:05:41.407Z,5.05
2022-08-28T11:08:20.197Z,5.45
2022-08-28T11:10:53.337Z,5.68
2022-08-28T11:14:01.259Z,6.35
2022-08-28T11:16:28.262Z,6.03
2022-08-28T11:19:06.497Z,4.70
2022-08-28T11:21:52.171Z,6.68
2022-08-28T11:24:34.555Z,5.03
2022-08-28T11:27:23.124Z,6.35
2022-08-28T11:30:01.855Z,5.50
2022-08-28T11:32:34.911Z,8.98
2022-08-28T11:35:04.242Z,15.70
2022-08-28T11:37:41.956Z,7.45
2022-08-28T11:40:31.804Z,7.18
2022-08-28T11:43:16.063Z,6.10
2022-08-28T11:45:46.831Z,4.93
2022-08-28T11:48:32.497Z,4.93
2022-08-28T11:51:07.103Z,4.45
2022-08-28T11:54:11.953Z,4.43
2022-08-28T11:56:51.156Z,4.63
2022-08-28T11:59:39.979Z,8.48
2022-08-28T12:02:41.122Z,4.70
2022-08-28T12:05:12.293Z,4.97
2022-08-28T12:07:50.285Z,4.70
2022-08-28T12:10:23.321Z,5.28
2022-08-28T12:13:04.640Z,3.65
2022-08-28T12:15:31.516Z,5.70
2022-08-28T12:18:04.336Z,5.78
2022-08-28T12:20:50.194Z,6.40
2022-08-28T12:23:37.301Z,8.63
2022-08-28T12:26:22.407Z,4.45
2022-08-28T12:29:32.656Z,6.90
2022-08-28T12:32:11.392Z,4.65
2022-08-28T12:34:50.757Z,4.57
2022-08-28T12:37:39.574Z,4.45
2022-08-28T12:40:35.123Z,5.03
2022-08-28T12:43:05.426Z,5.40
2022-08-28T12:45:48.745Z,5.88
2022-08-28T12:48:24.932Z,5.78
2022-08-28T12:51:04.136Z,5.63
2022-08-28T12:53:58.893Z,4.32
2022-08-28T12:56:30.718Z,6.60
2022-08-28T12:59:46.501Z,5.93
2022-08-28T13:02:33.753Z,6.05
2022-08-28T13:05:07.888Z,5.05
2022-08-28T13:07:45.557Z,6.65
2022-08-28T13:10:31.612Z,5.53
2022-08-28T13:13:24.072Z,6.15
2022-08-28T13:15:57.917Z,4.70
2022-08-28T13:18:56.502Z,3.63
2022-08-28T13:21:32.984Z,5.43
2022-08-28T13:24:26.090Z,6.05
2022-08-28T13:27:16.225Z,4.72
2022-08-28T13:29:55.704Z,3.78
2022-08-28T13:32:27.819Z,3.25
2022-08-28T13:35:06.698Z,5.45
2022-08-28T13:37:58.029Z,4.78
2022-08-28T13:43:24.148Z,3.53
2022-08-28T13:45:52.515Z,9.60
2022-08-28T13:48:22.758Z,4.30
2022-08-28T13:51:10.416Z,8.18
2022-08-28T13:53:38.472Z,7.13
2022-08-28T13:56:05.974Z,5.07
2022-08-28T13:58:32.879Z,4.57
2022-08-28T14:01:00.649Z,4.63
2022-08-28T14:03:38.223Z,7.45
2022-08-28T14:06:16.947Z,4.20
2022-08-28T14:08:46.762Z,2.42
2022-08-28T14:11:15.763Z,4.57
2022-08-28T14:13:47.256Z,6.35
2022-08-28T14:16:24.284Z,4.30
2022-08-28T14:18:52.763Z,7.93
2022-08-28T14:21:20.339Z,8.48
2022-08-28T14:23:47.263Z,2.72
2022-08-28T14:26:14.345Z,4.25
2022-08-28T14:28:42.384Z,6.50
2022-08-28T14:31:14.232Z,5.82
2022-08-28T14:33:45.463Z,6.57
2022-08-28T14:36:21.462Z,4.70
2022-08-28T14:38:49.671Z,7.05
2022-08-28T14:41:18.958Z,5.38
2022-08-28T14:43:45.991Z,4.28
2022-08-28T14:46:19.005Z,3.92
2022-08-28T14:48:47.949Z,5.63
2022-08-28T14:51:16.833Z,5.78
2022-08-28T14:53:44.516Z,5.50
2022-08-28T14:56:13.730Z,6.05
2022-08-28T14:58:40.722Z,4.50
2022-08-28T15:01:07.843Z,4.82
2022-08-28T15:03:36.058Z,5.10
2022-08-28T15:06:06.308Z,9.00
2022-08-28T15:08:34.161Z,3.10
2022-08-28T15:11:09.646Z,4.72
2022-08-28T15:13:36.848Z,5.13
2022-08-28T15:16:15.812Z,7.28
2022-08-28T15:18:45.682Z,4.45
2022-08-28T15:21:26.677Z,4.53
2022-08-28T15:23:55.528Z,5.07
2022-08-28T15:26:24.349Z,2.65
2022-08-28T15:28:55.535Z,4.53
2022-08-28T15:31:24.587Z,4.07
2022-08-28T15:33:52.366Z,7.57
2022-08-28T15:36:19.967Z,6.18
2022-08-28T15:39:05.419Z,7.65
2022-08-28T15:41:32.633Z,5.75
2022-08-28T15:44:02.156Z,5.13
2022-08-28T15:46:33.608Z,5.05
2022-08-28T15:49:03.856Z,4.18
2022-08-28T15:51:35.820Z,4.50
2022-08-28T15:54:03.099Z,5.60
2022-08-28T15:56:30.163Z,6.57
2022-08-28T15:58:57.183Z,5.45
2022-08-28T16:01:24.238Z,5.85
2022-08-28T16:03:51.342Z,7.18
2022-08-28T16:06:20.824Z,7.35
2022-08-28T16:08:48.974Z,6.28
2022-08-28T16:11:20.804Z,6.82
2022-08-28T16:13:48.013Z,4.40
2022-08-28T16:16:15.578Z,5.32
2022-08-28T16:18:43.105Z,5.68
2022-08-28T16:21:11.260Z,6.80
2022-08-28T16:23:39.043Z,5.35
2022-08-28T16:26:07.684Z,6.55
2022-08-28T16:28:35.965Z,5.45
2022-08-28T16:31:07.333Z,8.90
2022-08-28T16:33:35.322Z,7.18
2022-08-28T16:36:09.015Z,6.57
2022-08-28T16:38:43.068Z,8.80
2022-08-28T16:41:16.228Z,9.07
2022-08-28T16:43:43.649Z,9.13
2022-08-28T16:46:17.014Z,6.90
2022-08-28T16:48:45.445Z,9.10
2022-08-28T16:51:13.555Z,6.47
2022-08-28T16:53:42.586Z,4.95
2022-08-28T16:56:11.634Z,5.80
2022-08-28T16:58:39.860Z,5.82
2022-08-28T17:01:08.369Z,4.38
2022-08-28T17:03:39.001Z,5.72
2022-08-28T17:06:18.868Z,4.35
2022-08-28T17:08:46.493Z,7.43
2022-08-28T17:11:13.881Z,3.92
2022-08-28T17:13:41.073Z,4.30
2022-08-28T17:16:08.641Z,5.55
2022-08-28T17:18:37.108Z,6.30
2022-08-28T17:21:22.979Z,5.72
2022-08-28T17:23:50.185Z,6.55
2022-08-28T17:26:18.557Z,5.38
2022-08-28T17:28:46.349Z,9.27
2022-08-28T17:31:14.122Z,3.88
2022-08-28T17:33:43.325Z,5.07
2022-08-28T17:36:21.286Z,8.95
2022-08-28T17:39:01.547Z,6.03
2022-08-28T17:41:28.525Z,13.40
2022-08-28T17:43:55.544Z,12.55
2022-08-28T17:46:22.659Z,5.13
2022-08-28T17:48:54.442Z,7.75
2022-08-28T17:51:41.937Z,6.65
2022-08-28T17:54:18.426Z,5.68
2022-08-28T17:56:46.516Z,5.88
2022-08-28T17:59:14.577Z,6.93
2022-08-28T18:01:42.428Z,5.55
2022-08-28T18:04:09.695Z,7.35
2022-08-28T18:06:36.801Z,6.68
2022-08-28T18:09:05.585Z,4.63
2022-08-28T18:11:32.922Z,4.97
2022-08-28T18:14:00.755Z,7.07
2022-08-28T18:16:31.801Z,4.72
2022-08-28T18:19:05.044Z,5.60
2022-08-28T18:21:32.152Z,5.00
2022-08-28T18:23:59.235Z,4.82
2022-08-28T18:26:26.439Z,6.15
2022-08-28T18:28:53.421Z,5.35
2022-08-28T18:31:20.858Z,4.65
2022-08-28T18:33:47.988Z,6.80
2022-08-28T18:36:16.183Z,4.50
2022-08-28T18:38:44.475Z,5.35
2022-08-28T18:41:12.165Z,5.45
2022-08-28T18:43:39.715Z,4.15
2022-08-28T18:46:09.400Z,4.65
2022-08-28T18:48:37.768Z,8.90
2022-08-28T18:51:10.479Z,7.45
2022-08-28T18:53:37.492Z,5.55
2022-08-28T18:56:06.303Z,10.95
2022-08-28T18:58:33.830Z,4.45
2022-08-28T19:01:02.290Z,6.10
2022-08-28T19:03:30.041Z,5.63
2022-08-28T19:05:57.337Z,3.97
2022-08-28T19:08:25.765Z,7.70
2022-08-28T19:10:53.990Z,6.82
2022-08-28T19:13:21.404Z,8.52
2022-08-28T19:15:50.671Z,5.13
2022-08-28T19:18:18.007Z,5.68
2022-08-28T19:20:45.663Z,6.22
2022-08-28T19:23:16.891Z,4.43
2022-08-28T19:25:44.729Z,6.03
2022-08-28T19:28:11.747Z,6.55
2022-08-28T19:30:38.742Z,9.65
2022-08-28T19:33:06.124Z,6.40
2022-08-28T19:35:33.859Z,11.57
2022-08-28T19:38:01.685Z,9.70
2022-08-28T19:40:29.157Z,7.50
2022-08-28T19:42:56.461Z,6.85
2022-08-28T19:45:23.600Z,13.65
2022-08-28T19:47:52.273Z,6.38
2022-08-28T19:50:19.875Z,6.13
2022-08-28T19:52:46.887Z,5.82
2022-08-28T19:55:20.007Z,5.22
2022-08-28T19:57:48.538Z,7.25
2022-08-28T20:00:21.886Z,9.48
2022-08-28T20:02:51.636Z,9.10
2022-08-28T20:05:20.140Z,7.13
2022-08-28T20:07:47.471Z,8.60
2022-08-28T20:10:15.534Z,7.60
2022-08-28T20:12:48.219Z,4.53
2022-08-28T20:15:17.837Z,5.93
2022-08-28T20:17:49.749Z,3.50
2022-08-28T20:20:24.591Z,8.55
2022-08-28T20:22:54.401Z,5.63
2022-08-28T20:25:22.068Z,5.13
2022-08-28T20:27:49.040Z,4.55
2022-08-28T20:30:16.333Z,7.28
2022-08-28T20:32:43.362Z,9.30
2022-08-28T20:35:12.182Z,5.80
2022-08-28T20:37:45.018Z,4.90
2022-08-28T20:40:17.582Z,4.80
2022-08-28T20:42:45.349Z,5.90
2022-08-28T20:45:15.161Z,5.20
2022-08-28T20:47:42.422Z,6.40
2022-08-28T20:50:09.821Z,6.55
2022-08-28T20:52:37.076Z,4.80
2022-08-28T20:55:05.280Z,7.88
2022-08-28T20:57:32.237Z,5.07
2022-08-28T21:00:03.486Z,9.32
2022-08-28T21:02:33.087Z,4.85
2022-08-28T21:05:00.556Z,3.95
2022-08-28T21:07:28.027Z,5.82
2022-08-28T21:10:07.166Z,3.28
2022-08-28T21:12:36.817Z,6.32
2022-08-28T21:15:06.619Z,4.65
2022-08-28T21:17:33.964Z,4.75
2022-08-28T21:20:03.171Z,3.00
2022-08-28T21:22:32.869Z,6.30
2022-08-28T21:25:00.137Z,5.32
2022-08-28T21:27:27.441Z,6.47
2022-08-28T21:29:59.016Z,5.03
2022-08-28T21:32:27.404Z,5.45
2022-08-28T21:34:55.178Z,5.57
2022-08-28T21:37:22.784Z,5.25
2022-08-28T21:39:49.833Z,6.07
2022-08-28T21:42:16.990Z,6.22
2022-08-28T21:44:51.941Z,5.18
2022-08-28T21:47:22.973Z,6.13
2022-08-28T21:49:50.866Z,6.27
2022-08-28T21:52:19.405Z,7.17
2022-08-28T21:54:46.675Z,6.47
2022-08-28T21:57:14.382Z,5.77
2022-08-28T21:59:41.486Z,5.97
2022-08-28T22:02:08.483Z,5.33
2022-08-28T22:04:35.804Z,6.07
2022-08-28T22:07:02.746Z,4.07
2022-08-28T22:09:29.738Z,5.70
2022-08-28T22:11:57.172Z,3.27
2022-08-28T22:14:25.185Z,6.03
2022-08-28T22:16:52.450Z,8.97
2022-08-28T22:19:19.617Z,5.80
2022-08-28T22:22:04.980Z,8.27
2022-08-28T22:24:31.936Z,6.00
2022-08-28T22:26:58.932Z,6.63
2022-08-28T22:29:26.278Z,4.70
2022-08-28T22:31:53.352Z,7.87
2022-08-28T22:34:20.453Z,6.10
2022-08-28T22:36:47.450Z,5.33
2022-08-28T22:39:14.577Z,9.23
2022-08-28T22:41:42.008Z,6.47
2022-08-28T22:44:09.914Z,6.90
2022-08-28T22:46:37.051Z,5.43
2022-08-28T22:49:04.495Z,5.30
2022-08-28T22:51:33.804Z,7.17
2022-08-28T22:54:00.786Z,6.40
2022-08-28T22:56:27.734Z,3.73
2022-08-28T22:58:54.697Z,6.80
2022-08-28T23:01:24.128Z,9.80
2022-08-28T23:03:51.608Z,5.23
2022-08-28T23:06:20.391Z,9.07
2022-08-28T23:08:47.678Z,7.57
2022-08-28T23:11:15.101Z,9.83
2022-08-28T23:13:42.160Z,4.07
2022-08-28T23:16:09.826Z,5.67
2022-08-28T23:19:06.424Z,5.17
2022-08-28T23:21:26.430Z,5.43
2022-08-28T23:23:53.991Z,5.60
2022-08-28T23:26:21.093Z,3.90
2022-08-28T23:28:48.252Z,5.53
2022-08-28T23:31:15.299Z,6.73
2022-08-28T23:33:42.673Z,5.27
2022-08-28T23:36:10.239Z,4.97
2022-08-28T23:38:40.694Z,7.73
2022-08-28T23:41:11.477Z,6.27
2022-08-28T23:43:40.301Z,4.50
2022-08-28T23:46:09.393Z,5.60
2022-08-28T23:48:40.602Z,10.13
2022-08-28T23:51:11.961Z,6.03
2022-08-28T23:53:39.602Z,7.27
2022-08-28T23:56:06.852Z,6.03
2022-08-28T23:58:35.078Z,7.67
